createdAt,value
2019-03-09T11:11:16.653Z,8.85
2019-03-09T11:13:51.706Z,10.23
2019-03-09T11:16:14.977Z,10.25
2019-03-09T11:18:43.267Z,8.53
2019-03-09T11:21:11.529Z,9.35
2019-03-09T11:23:40.214Z,9.55
2019-03-09T11:26:08.632Z,11.48
2019-03-09T11:28:36.970Z,10.38
2019-03-09T11:31:05.261Z,11.00
2019-03-09T11:33:33.526Z,8.03
2019-03-09T11:36:01.825Z,9.65
2019-03-09T11:38:30.093Z,13.05
2019-03-09T11:41:00.741Z,10.45
2019-03-09T11:43:28.446Z,7.03
2019-03-09T11:45:56.772Z,11.93
2019-03-09T11:48:25.059Z,22.48
2019-03-09T11:50:53.337Z,16.30
2019-03-09T11:53:21.597Z,13.58
2019-03-09T11:55:49.877Z,12.53
2019-03-09T11:58:18.146Z,19.75
2019-03-09T12:00:47.814Z,10.15
2019-03-09T12:03:16.115Z,16.67
2019-03-09T12:05:44.386Z,16.73
2019-03-09T12:08:12.662Z,16.02
2019-03-09T12:10:40.920Z,14.80
2019-03-09T12:13:09.237Z,20.12
2019-03-09T12:15:37.507Z,18.30
2019-03-09T12:18:05.838Z,19.12
2019-03-09T12:20:34.111Z,14.80
2019-03-09T12:23:14.768Z,12.20
2019-03-09T12:25:43.057Z,18.32
2019-03-09T12:28:11.344Z,17.67
2019-03-09T12:30:41.041Z,12.85
2019-03-09T12:33:09.413Z,12.47
2019-03-09T12:35:37.751Z,9.93
2019-03-09T12:38:06.109Z,12.82
2019-03-09T12:40:34.691Z,11.80
2019-03-09T12:43:03.003Z,10.15
2019-03-09T12:45:31.371Z,14.33
2019-03-09T12:47:59.656Z,14.03
2019-03-09T12:50:27.936Z,14.80
2019-03-09T12:52:56.207Z,14.03
2019-03-09T12:55:24.506Z,16.87
2019-03-09T12:57:52.794Z,18.27
2019-03-09T13:00:22.181Z,18.52
2019-03-09T13:02:50.546Z,20.37
2019-03-09T13:05:18.895Z,15.83
2019-03-09T13:07:47.514Z,19.55
2019-03-09T13:10:16.401Z,16.17
2019-03-09T13:12:44.680Z,13.15
2019-03-09T13:15:13.127Z,19.30
2019-03-09T13:17:43.673Z,19.07
2019-03-09T13:20:13.530Z,14.58
2019-03-09T13:22:41.796Z,11.83
2019-03-09T13:25:10.335Z,15.10
2019-03-09T13:27:38.929Z,11.80
2019-03-09T13:30:15.595Z,14.87
2019-03-09T13:32:43.903Z,17.30
2019-03-09T13:35:12.239Z,12.40
2019-03-09T13:37:40.523Z,15.08
2019-03-09T13:40:10.358Z,16.42
2019-03-09T13:42:38.634Z,9.65
2019-03-09T13:45:17.024Z,14.98
2019-03-09T13:47:45.289Z,13.38
2019-03-09T13:50:14.650Z,17.23
2019-03-09T13:52:42.955Z,11.80
2019-03-09T13:55:12.205Z,13.45
2019-03-09T13:57:40.563Z,8.70
2019-03-09T14:00:14.717Z,10.38
2019-03-09T14:02:47.777Z,13.62
2019-03-09T14:05:16.773Z,11.68
2019-03-09T14:07:46.513Z,11.08
2019-03-09T14:10:16.536Z,12.37
2019-03-09T14:12:44.942Z,11.63
2019-03-09T14:15:15.687Z,13.45
2019-03-09T14:17:43.975Z,10.40
2019-03-09T14:20:14.269Z,13.35
2019-03-09T14:22:42.900Z,10.08
2019-03-09T14:25:12.674Z,16.00
2019-03-09T14:27:41.004Z,10.60
2019-03-09T14:30:12.358Z,8.38
2019-03-09T14:32:40.775Z,13.68
2019-03-09T14:35:09.050Z,12.05
2019-03-09T14:37:37.321Z,8.80
2019-03-09T14:40:08.249Z,11.03
2019-03-09T14:42:36.513Z,13.90
2019-03-09T14:45:11.565Z,15.63
2019-03-09T14:47:39.838Z,12.20
2019-03-09T14:50:08.840Z,16.45
2019-03-09T14:52:37.126Z,13.78
2019-03-09T14:55:08.192Z,13.20
2019-03-09T14:57:36.480Z,15.80
2019-03-09T15:00:08.002Z,14.28
2019-03-09T15:02:36.266Z,14.03
2019-03-09T15:05:05.903Z,17.90
2019-03-09T15:07:34.170Z,20.62
2019-03-09T15:10:02.789Z,14.80
2019-03-09T15:12:31.061Z,14.78
2019-03-09T15:14:59.653Z,16.20
2019-03-09T15:17:27.939Z,22.67
2019-03-09T15:19:56.215Z,13.95
2019-03-09T15:22:24.597Z,11.15
2019-03-09T15:24:52.862Z,10.55
2019-03-09T15:27:21.136Z,17.35
2019-03-09T15:29:49.496Z,11.30
2019-03-09T15:32:17.760Z,14.20
2019-03-09T15:34:46.070Z,13.93
2019-03-09T15:37:14.391Z,10.70
2019-03-09T15:39:42.674Z,10.72
2019-03-09T15:42:10.972Z,12.00
2019-03-09T15:44:39.316Z,13.30
2019-03-09T15:47:07.609Z,11.70
2019-03-09T15:49:35.865Z,12.15
2019-03-09T15:52:04.223Z,13.53
2019-03-09T15:54:32.917Z,12.65
2019-03-09T15:57:01.189Z,15.93
2019-03-09T15:59:29.516Z,11.20
2019-03-09T16:01:57.837Z,11.38
2019-03-09T16:04:26.117Z,11.80
2019-03-09T16:06:54.384Z,6.30
2019-03-09T16:09:22.647Z,8.53
2019-03-09T16:11:50.952Z,8.25
2019-03-09T16:14:19.221Z,7.58
2019-03-09T16:16:47.499Z,8.28
2019-03-09T16:19:15.867Z,10.35
2019-03-09T16:21:44.132Z,9.53
2019-03-09T16:24:12.750Z,8.33
2019-03-09T16:26:41.031Z,9.73
2019-03-09T16:29:09.295Z,7.80
2019-03-09T16:31:37.581Z,8.40
2019-03-09T16:34:05.910Z,11.10
2019-03-09T16:36:34.226Z,6.65
2019-03-09T16:39:03.046Z,8.85
2019-03-09T16:41:33.136Z,6.65
2019-03-09T16:44:01.340Z,9.45
2019-03-09T16:46:29.632Z,10.13
2019-03-09T16:48:57.997Z,8.83
2019-03-09T16:51:26.256Z,6.62
2019-03-09T16:53:54.527Z,8.18
2019-03-09T16:56:22.813Z,10.85
2019-03-09T16:58:51.082Z,12.43
2019-03-09T17:01:19.367Z,7.03
2019-03-09T17:03:47.712Z,8.50
2019-03-09T17:06:16.346Z,4.95
2019-03-09T17:08:44.687Z,8.00
2019-03-09T17:11:12.953Z,9.45
2019-03-09T17:13:41.240Z,7.67
2019-03-09T17:16:09.504Z,7.53
2019-03-09T17:18:37.776Z,10.40
2019-03-09T17:21:06.063Z,6.78
2019-03-09T17:23:34.329Z,7.90
2019-03-09T17:26:02.626Z,10.05
2019-03-09T17:28:31.248Z,6.03
2019-03-09T17:30:59.522Z,6.47
2019-03-09T17:33:27.794Z,8.23
2019-03-09T17:35:56.141Z,5.72
2019-03-09T17:38:24.419Z,7.95
2019-03-09T17:40:52.698Z,7.92
2019-03-09T17:43:20.963Z,9.03
2019-03-09T17:45:49.256Z,4.25
2019-03-09T17:48:17.516Z,5.83
2019-03-09T17:50:45.880Z,7.78
2019-03-09T17:53:14.224Z,4.62
2019-03-09T17:55:42.496Z,7.95
2019-03-09T17:58:10.781Z,6.83
2019-03-09T18:00:42.768Z,6.75
2019-03-09T18:03:10.679Z,5.65
2019-03-09T18:05:38.957Z,5.97
2019-03-09T18:08:07.221Z,8.50
2019-03-09T18:10:44.203Z,6.85
2019-03-09T18:13:12.461Z,5.08
2019-03-09T18:15:40.762Z,6.62
2019-03-09T18:18:09.026Z,5.05
2019-03-09T18:20:37.373Z,6.90
2019-03-09T18:23:05.660Z,8.25
2019-03-09T18:25:33.925Z,8.33
2019-03-09T18:28:02.216Z,6.12
2019-03-09T18:30:30.554Z,7.95
2019-03-09T18:32:58.875Z,4.45
2019-03-09T18:35:27.442Z,6.87
2019-03-09T18:37:55.707Z,5.53
2019-03-09T18:40:23.996Z,5.97
2019-03-09T18:42:52.341Z,6.10
2019-03-09T18:45:22.703Z,5.75
2019-03-09T18:47:51.032Z,4.67
2019-03-09T18:50:19.291Z,6.50
2019-03-09T18:52:47.636Z,6.53
2019-03-09T18:55:15.892Z,4.28
2019-03-09T18:57:44.166Z,5.00
2019-03-09T19:00:22.539Z,8.85
2019-03-09T19:02:50.807Z,5.55
2019-03-09T19:05:19.113Z,5.97
2019-03-09T19:07:47.370Z,4.62
2019-03-09T19:10:22.876Z,4.35
2019-03-09T19:12:51.215Z,6.03
2019-03-09T19:15:19.477Z,5.55
2019-03-09T19:17:47.765Z,5.00
2019-03-09T19:20:17.177Z,7.28
2019-03-09T19:22:45.487Z,4.20
2019-03-09T19:25:14.599Z,4.87
2019-03-09T19:27:42.858Z,5.22
2019-03-09T19:30:16.377Z,4.50
2019-03-09T19:32:44.702Z,5.10
2019-03-09T19:35:13.000Z,4.80
2019-03-09T19:37:41.262Z,6.55
2019-03-09T19:40:12.599Z,4.62
2019-03-09T19:42:41.246Z,5.12
2019-03-09T19:45:16.837Z,5.03
2019-03-09T19:47:45.126Z,5.55
2019-03-09T19:50:21.965Z,5.53
2019-03-09T19:52:50.268Z,4.75
2019-03-09T19:55:18.533Z,5.65
2019-03-09T19:57:46.820Z,4.97
2019-03-09T20:00:16.750Z,5.90
2019-03-09T20:02:45.071Z,6.47
2019-03-09T20:05:13.364Z,4.20
2019-03-09T20:07:41.621Z,3.35
2019-03-09T20:10:16.854Z,8.50
2019-03-09T20:12:45.142Z,5.42
2019-03-09T20:15:16.695Z,4.95
2019-03-09T20:17:45.998Z,3.92
2019-03-09T20:20:18.288Z,5.37
2019-03-09T20:22:46.651Z,4.60
2019-03-09T20:25:14.920Z,5.62
2019-03-09T20:27:43.542Z,4.65
2019-03-09T20:30:21.641Z,4.72
2019-03-09T20:32:49.903Z,3.15
2019-03-09T20:35:18.209Z,4.25
2019-03-09T20:37:46.470Z,4.42
2019-03-09T20:40:19.393Z,4.05
2019-03-09T20:42:47.682Z,4.20
2019-03-09T20:45:17.286Z,5.28
2019-03-09T20:47:45.600Z,4.75
2019-03-09T20:50:18.370Z,6.80
2019-03-09T20:52:46.644Z,3.67
2019-03-09T20:55:15.269Z,6.53
2019-03-09T20:57:43.518Z,4.80
2019-03-09T21:00:18.859Z,5.47
2019-03-09T21:02:47.207Z,3.77
2019-03-09T21:05:15.543Z,4.90
2019-03-09T21:07:43.833Z,5.45
2019-03-09T21:10:14.431Z,5.80
2019-03-09T21:13:03.502Z,4.33
2019-03-09T21:15:31.969Z,4.03
2019-03-09T21:18:00.309Z,6.00
2019-03-09T21:20:28.669Z,6.75
2019-03-09T21:22:57.072Z,6.22
2019-03-09T21:25:25.340Z,4.25
2019-03-09T21:27:53.627Z,5.37
2019-03-09T21:30:21.891Z,4.62
2019-03-09T21:32:50.155Z,4.15
2019-03-09T21:35:18.423Z,3.40
2019-03-09T21:37:46.693Z,4.87
2019-03-09T21:40:14.988Z,3.60
2019-03-09T21:42:43.245Z,4.33
2019-03-09T21:45:13.625Z,5.78
2019-03-09T21:47:41.906Z,4.03
2019-03-09T21:50:12.420Z,3.87
2019-03-09T21:52:40.721Z,5.17
2019-03-09T21:55:11.790Z,3.75
2019-03-09T21:57:40.394Z,3.70
2019-03-09T22:00:20.137Z,4.10
2019-03-09T22:02:50.192Z,6.30
2019-03-09T22:05:18.403Z,4.37
2019-03-09T22:07:46.666Z,4.95
2019-03-09T22:10:14.938Z,4.50
2019-03-09T22:12:43.249Z,3.77
2019-03-09T22:15:17.864Z,5.17
2019-03-09T22:17:46.233Z,5.12
2019-03-09T22:20:15.537Z,3.90
2019-03-09T22:22:43.809Z,4.05
2019-03-09T22:25:14.310Z,4.22
2019-03-09T22:27:42.648Z,6.22
2019-03-09T22:30:16.096Z,6.45
